Time;durP1;ratioP1;P1;durP2;ratioP2;P2;SDS_P1;SDS_P2;PMS_P1;PMS_P2;Temp;Humidity;BMP_temperature;BMP_pressure;BME280_temperature;BME280_humidity;BME280_pressure;Samples;Min_cycle;Max_cycle;Signal;HPM_P1;HPM_P2
2023/08/02 00:01:52;;;;;;;0.80;0.53;;;15.20;99.90;;;;;;5083961;28;21034;-82
2023/08/02 00:04:19;;;;;;;1.90;0.40;;;15.20;99.90;;;;;;5084390;28;20960;-84
2023/08/02 00:06:45;;;;;;;0.47;0.40;;;15.30;99.90;;;;;;5082243;28;20463;-80
2023/08/02 00:09:14;;;;;;;0.60;0.40;;;15.30;99.90;;;;;;5086468;28;20523;-80
2023/08/02 00:11:41;;;;;;;2.20;0.50;;;15.40;99.90;;;;;;5084322;28;20443;-84
2023/08/02 00:14:08;;;;;;;0.80;0.60;;;15.50;99.90;;;;;;5085156;28;20998;-82
2023/08/02 00:16:34;;;;;;;2.10;0.40;;;15.50;99.90;;;;;;5087745;28;20969;-80
2023/08/02 00:19:02;;;;;;;0.50;0.50;;;15.60;99.90;;;;;;5087733;28;20531;-82
2023/08/02 00:21:29;;;;;;;0.40;0.40;;;15.60;99.90;;;;;;5085607;28;20463;-81
2023/08/02 00:23:56;;;;;;;0.50;0.40;;;15.60;99.90;;;;;;5088109;28;20501;-82
2023/08/02 00:26:25;;;;;;;0.70;0.50;;;15.50;99.90;;;;;;5087995;28;20921;-81
2023/08/02 00:28:52;;;;;;;2.60;0.50;;;15.40;99.90;;;;;;5085088;28;20475;-81
2023/08/02 00:31:19;;;;;;;0.90;0.50;;;15.30;99.90;;;;;;5083611;28;20946;-81
2023/08/02 00:33:46;;;;;;;0.70;0.50;;;15.30;99.90;;;;;;5088567;28;20514;-83
2023/08/02 00:36:13;;;;;;;1.13;0.47;;;15.30;99.90;;;;;;5087278;28;20471;-84
2023/08/02 00:38:40;;;;;;;0.50;0.47;;;15.30;99.90;;;;;;5087869;28;20456;-82
2023/08/02 00:41:07;;;;;;;0.60;0.50;;;15.40;99.90;;;;;;5086530;28;21025;-81
2023/08/02 00:43:40;;;;;;;0.50;0.50;;;15.50;99.90;;;;;;5087510;28;20449;-81
2023/08/02 00:46:08;;;;;;;0.63;0.50;;;15.40;99.90;;;;;;5082287;28;20456;-83
2023/08/02 00:48:35;;;;;;;0.53;0.53;;;15.40;99.90;;;;;;5088455;28;20448;-81
2023/08/02 00:51:03;;;;;;;0.60;0.53;;;15.50;99.90;;;;;;5083777;28;20712;-81
2023/08/02 00:53:30;;;;;;;0.67;0.50;;;15.40;99.90;;;;;;5085775;28;20579;-81
2023/08/02 00:55:57;;;;;;;0.77;0.40;;;15.40;99.90;;;;;;5086120;28;20548;-83
2023/08/02 00:58:24;;;;;;;0.80;0.77;;;15.40;99.90;;;;;;5088009;28;20463;-81
2023/08/02 01:00:53;;;;;;;0.57;0.50;;;15.40;99.90;;;;;;5084300;28;20455;-81
2023/08/02 01:03:20;;;;;;;2.50;0.60;;;15.40;99.90;;;;;;5092398;28;20498;-81
2023/08/02 01:05:56;;;;;;;0.93;0.50;;;15.40;99.90;;;;;;5089828;28;20497;-81
2023/08/02 01:08:29;;;;;;;0.60;0.40;;;15.50;99.90;;;;;;5082356;28;20535;-81
2023/08/02 01:11:05;;;;;;;0.87;0.60;;;15.50;99.90;;;;;;5085807;28;20485;-81
2023/08/02 01:13:35;;;;;;;0.60;0.57;;;15.40;99.90;;;;;;5084861;28;20490;-81
2023/08/02 01:16:05;;;;;;;1.90;0.40;;;15.50;99.90;;;;;;5085183;28;20444;-80
2023/08/02 01:18:32;;;;;;;1.07;1.00;;;15.40;99.90;;;;;;5086828;28;20519;-81
2023/08/02 01:21:00;;;;;;;1.40;0.50;;;15.40;99.90;;;;;;5086527;28;20483;-81
2023/08/02 01:23:28;;;;;;;0.70;0.57;;;15.40;99.90;;;;;;5085921;28;20444;-83
2023/08/02 01:25:58;;;;;;;0.53;0.43;;;15.40;99.90;;;;;;5085030;28;20485;-81
2023/08/02 01:28:27;;;;;;;0.50;0.37;;;15.30;99.90;;;;;;5084536;28;20475;-82
2023/08/02 01:30:55;;;;;;;2.10;0.50;;;15.40;99.90;;;;;;5084057;28;20470;-83
2023/08/02 01:33:23;;;;;;;2.00;0.50;;;15.40;99.90;;;;;;5083173;28;20514;-84
2023/08/02 01:35:50;;;;;;;0.50;0.40;;;15.40;99.90;;;;;;5084056;28;20473;-83
2023/08/02 01:38:19;;;;;;;0.93;0.40;;;15.40;99.90;;;;;;5086151;28;20531;-80
2023/08/02 01:40:46;;;;;;;0.90;0.50;;;15.40;99.90;;;;;;5083856;28;20873;-81
2023/08/02 01:43:13;;;;;;;0.70;0.40;;;15.40;99.90;;;;;;5084170;28;20550;-81
2023/08/02 01:45:40;;;;;;;0.70;0.50;;;15.30;99.90;;;;;;5084016;28;21228;-81
2023/08/02 01:48:07;;;;;;;2.40;0.50;;;15.30;99.90;;;;;;5080880;28;20471;-83
2023/08/02 01:50:34;;;;;;;0.60;0.50;;;15.30;99.90;;;;;;5081868;28;21089;-84
2023/08/02 01:53:01;;;;;;;0.80;0.70;;;15.30;99.90;;;;;;5084502;28;20938;-81
2023/08/02 01:55:29;;;;;;;0.60;0.50;;;15.20;99.90;;;;;;5087088;28;20516;-81
2023/08/02 01:57:56;;;;;;;0.60;0.50;;;15.20;99.90;;;;;;5089654;28;20474;-81
2023/08/02 02:00:23;;;;;;;0.60;0.50;;;15.20;99.90;;;;;;5088262;28;20520;-81
2023/08/02 02:02:50;;;;;;;0.70;0.40;;;15.10;99.90;;;;;;5085725;28;20435;-81
2023/08/02 02:05:17;;;;;;;0.60;0.50;;;15.00;99.90;;;;;;5084646;28;20446;-81
2023/08/02 02:07:44;;;;;;;0.50;0.40;;;15.00;99.90;;;;;;5083809;28;21216;-81
2023/08/02 02:10:11;;;;;;;0.50;0.40;;;15.00;99.90;;;;;;5086521;28;20474;-82
2023/08/02 02:12:39;;;;;;;0.80;0.60;;;15.00;99.90;;;;;;5081272;28;20564;-81
2023/08/02 02:15:07;;;;;;;0.80;0.53;;;14.90;99.90;;;;;;5082708;28;20464;-84
2023/08/02 02:17:34;;;;;;;1.00;0.40;;;14.90;99.90;;;;;;5084107;28;20495;-82
2023/08/02 02:20:01;;;;;;;1.40;0.50;;;14.80;99.90;;;;;;5084315;28;20497;-82
2023/08/02 02:22:28;;;;;;;1.53;1.43;;;14.80;99.90;;;;;;5085756;28;20524;-83
2023/08/02 02:24:55;;;;;;;1.60;0.57;;;14.80;99.90;;;;;;5083838;28;20798;-82
2023/08/02 02:27:22;;;;;;;0.70;0.50;;;14.70;99.90;;;;;;5083704;28;20500;-83
2023/08/02 02:29:50;;;;;;;0.70;0.53;;;14.70;99.90;;;;;;5082305;28;20536;-81
2023/08/02 02:32:17;;;;;;;0.90;0.50;;;14.70;99.90;;;;;;5084263;28;20520;-81
2023/08/02 02:34:45;;;;;;;0.90;0.60;;;14.70;99.90;;;;;;5083709;28;20575;-81
2023/08/02 02:37:11;;;;;;;0.50;0.40;;;14.70;99.90;;;;;;5085453;28;20492;-83
2023/08/02 02:39:39;;;;;;;0.70;0.70;;;14.60;99.90;;;;;;5085911;28;21142;-82
2023/08/02 02:42:06;;;;;;;1.33;1.07;;;14.70;99.90;;;;;;5084728;28;20444;-83
2023/08/02 02:44:42;;;;;;;0.70;0.60;;;14.70;99.90;;;;;;5084764;28;20572;-81
2023/08/02 02:47:11;;;;;;;0.50;0.40;;;14.60;99.90;;;;;;5077538;28;20491;-81
2023/08/02 02:49:38;;;;;;;2.07;0.50;;;14.50;99.90;;;;;;5086044;28;20471;-81
2023/08/02 02:52:07;;;;;;;1.40;1.30;;;14.50;99.90;;;;;;5081366;28;20986;-82
2023/08/02 02:54:33;;;;;;;0.70;0.60;;;14.60;99.90;;;;;;5085706;28;20491;-81
2023/08/02 02:57:01;;;;;;;1.00;0.53;;;14.60;99.90;;;;;;5083597;28;20487;-81
2023/08/02 02:59:27;;;;;;;0.60;0.50;;;14.70;99.90;;;;;;5086566;28;20484;-81
2023/08/02 03:01:54;;;;;;;0.80;0.60;;;14.60;99.90;;;;;;5084412;28;20536;-82
2023/08/02 03:04:23;;;;;;;4.00;1.00;;;14.70;99.90;;;;;;5085384;28;20507;-82
2023/08/02 03:06:50;;;;;;;1.00;0.40;;;14.70;99.90;;;;;;5085724;28;20440;-81
2023/08/02 03:09:17;;;;;;;0.90;0.90;;;14.80;99.90;;;;;;5084773;28;20555;-81
2023/08/02 03:11:44;;;;;;;0.57;0.50;;;14.80;99.90;;;;;;5086431;28;20444;-82
2023/08/02 03:14:11;;;;;;;0.80;0.63;;;14.80;99.90;;;;;;5083780;28;20626;-82
2023/08/02 03:16:38;;;;;;;1.23;0.50;;;14.70;99.90;;;;;;5083724;28;20463;-82
2023/08/02 03:19:06;;;;;;;0.73;0.60;;;14.70;99.90;;;;;;5083965;28;20526;-81
2023/08/02 03:21:35;;;;;;;0.60;0.60;;;14.60;99.90;;;;;;5084767;28;20488;-84
2023/08/02 03:24:02;;;;;;;1.80;0.90;;;14.60;99.90;;;;;;5085071;28;20447;-82
2023/08/02 03:26:29;;;;;;;1.60;0.57;;;14.50;99.90;;;;;;5081820;28;20448;-81
2023/08/02 03:28:56;;;;;;;1.50;0.60;;;14.50;99.90;;;;;;5081541;28;20541;-82
2023/08/02 03:31:23;;;;;;;0.87;0.60;;;14.50;99.90;;;;;;5085078;28;20543;-82
2023/08/02 03:33:50;;;;;;;0.57;0.50;;;14.40;99.90;;;;;;5086195;28;20640;-81
2023/08/02 03:36:17;;;;;;;1.07;0.60;;;14.30;99.90;;;;;;5094600;28;20460;-82
2023/08/02 03:38:45;;;;;;;1.00;0.50;;;14.20;99.90;;;;;;5102517;28;20436;-82
2023/08/02 03:41:12;;;;;;;1.80;1.23;;;14.20;99.90;;;;;;5097345;28;20474;-80
2023/08/02 03:43:39;;;;;;;0.60;0.60;;;14.20;99.90;;;;;;5101422;28;20452;-81
2023/08/02 03:46:06;;;;;;;0.90;0.60;;;14.30;99.90;;;;;;5090757;28;21314;-82
2023/08/02 03:48:33;;;;;;;0.70;0.60;;;14.30;99.90;;;;;;5083216;28;20440;-82
2023/08/02 03:51:00;;;;;;;0.60;0.60;;;14.30;99.90;;;;;;5088572;28;20443;-84
2023/08/02 03:53:28;;;;;;;1.67;0.47;;;14.20;99.90;;;;;;5089152;28;20482;-84
2023/08/02 03:55:56;;;;;;;0.70;0.50;;;14.20;99.90;;;;;;5088144;28;20468;-81
2023/08/02 03:58:23;;;;;;;0.90;0.60;;;14.30;99.90;;;;;;5086967;28;20528;-81
2023/08/02 04:00:51;;;;;;;0.90;0.60;;;14.30;99.90;;;;;;5089622;28;20440;-83
2023/08/02 04:03:17;;;;;;;0.67;0.67;;;14.30;99.90;;;;;;5087822;28;20451;-81
2023/08/02 04:05:45;;;;;;;1.53;0.50;;;14.30;99.90;;;;;;5081501;28;20487;-81
2023/08/02 04:08:12;;;;;;;1.37;0.50;;;14.30;99.90;;;;;;5087911;28;20930;-81
2023/08/02 04:10:39;;;;;;;0.67;0.53;;;14.20;99.90;;;;;;5086921;28;20448;-79
2023/08/02 04:13:07;;;;;;;1.33;0.60;;;14.20;99.90;;;;;;5086043;28;20934;-82
2023/08/02 04:15:35;;;;;;;0.90;0.60;;;14.30;99.90;;;;;;5084587;28;20455;-83
2023/08/02 04:18:02;;;;;;;1.13;0.70;;;14.30;99.90;;;;;;5086113;28;20487;-83
2023/08/02 04:20:29;;;;;;;0.80;0.70;;;14.40;99.90;;;;;;5088015;28;20505;-80
2023/08/02 04:22:56;;;;;;;1.27;0.87;;;14.50;99.90;;;;;;5083987;28;20967;-81
2023/08/02 04:25:23;;;;;;;0.80;0.70;;;14.50;99.90;;;;;;5087330;28;20500;-82
2023/08/02 04:27:50;;;;;;;2.80;0.47;;;14.60;99.90;;;;;;5078057;28;20459;-82
2023/08/02 04:30:19;;;;;;;0.60;0.50;;;14.70;99.90;;;;;;5087356;28;20542;-82
2023/08/02 04:32:46;;;;;;;0.80;0.60;;;14.70;99.90;;;;;;5081289;28;20494;-82
2023/08/02 04:35:13;;;;;;;1.67;0.60;;;14.80;99.90;;;;;;5083057;28;20479;-84
2023/08/02 04:37:39;;;;;;;0.70;0.40;;;15.00;99.90;;;;;;5080431;28;20607;-82
2023/08/02 04:40:07;;;;;;;0.70;0.60;;;15.10;99.90;;;;;;5084603;28;20856;-81
2023/08/02 04:42:34;;;;;;;0.70;0.60;;;15.10;99.90;;;;;;5084427;28;20521;-81
2023/08/02 04:45:01;;;;;;;1.13;0.57;;;15.10;99.90;;;;;;5081603;28;20463;-80
2023/08/02 04:47:30;;;;;;;1.13;1.03;;;15.20;99.90;;;;;;5085379;28;20463;-79
2023/08/02 04:49:58;;;;;;;0.53;0.50;;;15.30;99.90;;;;;;5084553;28;20451;-80
2023/08/02 04:52:25;;;;;;;1.27;0.90;;;15.40;99.90;;;;;;5087534;28;20505;-80
2023/08/02 04:54:52;;;;;;;1.37;0.50;;;15.40;99.90;;;;;;5085497;28;20483;-80
2023/08/02 04:57:19;;;;;;;1.20;0.70;;;15.40;99.90;;;;;;5087187;28;20509;-80
2023/08/02 04:59:46;;;;;;;1.80;0.60;;;15.50;99.90;;;;;;5092315;28;20490;-81
2023/08/02 05:02:13;;;;;;;0.70;0.70;;;15.50;99.90;;;;;;5101215;28;20455;-79
2023/08/02 05:04:41;;;;;;;0.60;0.50;;;15.50;99.90;;;;;;5093101;28;20497;-80
2023/08/02 05:07:08;;;;;;;2.00;0.83;;;15.50;99.90;;;;;;5084337;28;20517;-79
2023/08/02 05:09:35;;;;;;;1.37;0.60;;;15.60;99.90;;;;;;5081811;28;20482;-79
2023/08/02 05:12:02;;;;;;;1.40;0.83;;;15.70;99.90;;;;;;5082198;28;21154;-80
2023/08/02 05:14:29;;;;;;;0.80;0.63;;;15.90;99.90;;;;;;5086256;28;20572;-80
2023/08/02 05:16:56;;;;;;;0.67;0.40;;;15.90;99.90;;;;;;5080987;28;20558;-79
2023/08/02 05:19:23;;;;;;;0.77;0.50;;;16.10;99.90;;;;;;5086350;28;21247;-79
2023/08/02 05:21:51;;;;;;;3.13;0.80;;;16.30;99.90;;;;;;5088773;28;20452;-79
2023/08/02 05:24:18;;;;;;;0.70;0.60;;;16.30;99.90;;;;;;5081923;28;20435;-80
2023/08/02 05:26:45;;;;;;;2.30;0.57;;;16.60;99.90;;;;;;5082163;28;20455;-79
2023/08/02 05:29:12;;;;;;;0.60;0.50;;;16.90;99.90;;;;;;5078182;28;20926;-79
2023/08/02 05:31:39;;;;;;;3.90;0.60;;;17.10;99.90;;;;;;5074790;28;20456;-82
2023/08/02 05:34:06;;;;;;;1.00;0.50;;;17.10;99.90;;;;;;5082356;28;21027;-80
2023/08/02 05:36:33;;;;;;;0.70;0.60;;;17.10;99.90;;;;;;5083757;28;20454;-79
2023/08/02 05:39:02;;;;;;;2.60;0.53;;;17.10;99.90;;;;;;5080101;28;21065;-83
2023/08/02 05:41:29;;;;;;;0.60;0.60;;;17.00;99.90;;;;;;5077364;28;20455;-79
2023/08/02 05:43:56;;;;;;;2.60;1.67;;;17.10;99.90;;;;;;5084822;28;20459;-82
2023/08/02 05:46:24;;;;;;;2.20;1.40;;;17.20;99.90;;;;;;5080578;28;20529;-84
2023/08/02 05:48:51;;;;;;;1.33;0.90;;;17.20;99.90;;;;;;5073214;28;21306;-84
2023/08/02 05:51:17;;;;;;;6.27;1.27;;;17.40;99.90;;;;;;5075359;28;20446;-82
2023/08/02 05:53:44;;;;;;;0.60;0.60;;;17.60;99.90;;;;;;5079512;28;20826;-80
2023/08/02 05:56:13;;;;;;;2.50;0.80;;;17.70;99.90;;;;;;5084515;28;20443;-79
2023/08/02 05:58:40;;;;;;;0.50;0.50;;;18.00;99.90;;;;;;5078937;28;20453;-80
2023/08/02 06:01:06;;;;;;;1.33;0.80;;;18.10;99.90;;;;;;5083615;28;21141;-78
2023/08/02 06:03:33;;;;;;;0.83;0.50;;;18.20;99.90;;;;;;5073173;28;20530;-83
2023/08/02 06:06:00;;;;;;;0.60;0.60;;;18.40;99.90;;;;;;5080070;28;20490;-79
2023/08/02 06:08:27;;;;;;;0.53;0.50;;;18.40;99.90;;;;;;5082826;28;20455;-79
2023/08/02 06:10:54;;;;;;;0.50;0.43;;;18.70;99.90;;;;;;5076647;28;20443;-81
2023/08/02 06:13:23;;;;;;;1.57;0.50;;;19.00;99.90;;;;;;5083756;28;20486;-83
2023/08/02 06:15:51;;;;;;;0.80;0.50;;;19.10;99.90;;;;;;5080333;28;20597;-79
2023/08/02 06:18:18;;;;;;;0.70;0.50;;;19.10;99.90;;;;;;5082288;28;20523;-80
2023/08/02 06:20:45;;;;;;;0.77;0.50;;;19.00;99.90;;;;;;5085042;28;20990;-81
2023/08/02 06:23:12;;;;;;;1.03;0.60;;;19.10;99.90;;;;;;5088355;28;20467;-79
2023/08/02 06:25:39;;;;;;;0.77;0.57;;;19.10;99.90;;;;;;5093748;28;20453;-79
2023/08/02 06:28:06;;;;;;;0.80;0.60;;;19.30;99.90;;;;;;5081057;28;20981;-80
2023/08/02 06:30:34;;;;;;;1.60;0.70;;;19.30;99.90;;;;;;5075326;28;20453;-79
2023/08/02 06:33:01;;;;;;;0.60;0.50;;;19.40;99.90;;;;;;5079916;28;20451;-80
2023/08/02 06:35:28;;;;;;;0.77;0.50;;;19.60;99.90;;;;;;5080548;28;20487;-79
2023/08/02 06:37:55;;;;;;;0.80;0.50;;;19.80;99.90;;;;;;5078716;28;20516;-79
2023/08/02 06:40:22;;;;;;;0.53;0.50;;;19.90;99.90;;;;;;5082218;28;20913;-80
2023/08/02 06:42:49;;;;;;;2.43;0.60;;;20.00;99.90;;;;;;5086144;28;20443;-79
2023/08/02 06:45:16;;;;;;;0.80;0.60;;;20.00;99.90;;;;;;5086211;28;20513;-80
2023/08/02 06:47:44;;;;;;;1.13;0.80;;;20.00;99.90;;;;;;5082406;28;20462;-84
2023/08/02 06:50:11;;;;;;;0.60;0.50;;;20.10;99.90;;;;;;5086189;28;20443;-82
2023/08/02 06:52:38;;;;;;;3.03;0.70;;;20.40;99.90;;;;;;5085193;28;20443;-80
2023/08/02 06:55:06;;;;;;;1.10;0.60;;;20.50;99.90;;;;;;5079322;28;21104;-81
2023/08/02 06:57:33;;;;;;;1.80;0.70;;;20.30;99.90;;;;;;5086432;28;20455;-80
2023/08/02 07:00:00;;;;;;;0.70;0.60;;;20.40;99.90;;;;;;5083457;28;20447;-83
2023/08/02 07:02:27;;;;;;;1.60;0.77;;;20.40;99.90;;;;;;5079817;28;20469;-79
2023/08/02 07:04:55;;;;;;;1.93;0.50;;;20.60;99.90;;;;;;5084338;28;21169;-80
2023/08/02 07:07:21;;;;;;;0.80;0.70;;;20.70;99.90;;;;;;5085471;28;20444;-83
2023/08/02 07:09:49;;;;;;;0.90;0.80;;;20.70;99.90;;;;;;5085300;28;20451;-80
2023/08/02 07:12:16;;;;;;;0.50;0.40;;;20.70;99.90;;;;;;5083493;28;20542;-80
2023/08/02 07:14:43;;;;;;;1.17;0.70;;;21.10;99.90;;;;;;5085608;28;20515;-81
2023/08/02 07:17:10;;;;;;;0.70;0.50;;;21.30;99.90;;;;;;5084509;28;20466;-80
2023/08/02 07:19:37;;;;;;;6.40;1.13;;;21.30;99.90;;;;;;5086218;28;20508;-83
2023/08/02 07:22:06;;;;;;;2.60;0.70;;;21.20;99.90;;;;;;5082926;28;20447;-80
2023/08/02 07:24:33;;;;;;;0.67;0.53;;;21.10;99.90;;;;;;5079873;28;20462;-80
2023/08/02 07:27:00;;;;;;;1.87;0.83;;;20.60;99.90;;;;;;5080252;28;20464;-82
2023/08/02 07:29:27;;;;;;;1.20;0.70;;;20.70;99.90;;;;;;5085581;28;20486;-83
2023/08/02 07:31:54;;;;;;;1.33;0.60;;;20.90;99.90;;;;;;5084393;28;20527;-79
2023/08/02 07:34:21;;;;;;;0.87;0.70;;;21.20;99.90;;;;;;5083160;28;20533;-79
2023/08/02 07:36:48;;;;;;;1.40;0.60;;;21.30;99.90;;;;;;5084994;28;20451;-83
2023/08/02 07:39:16;;;;;;;0.70;0.40;;;21.00;99.90;;;;;;5083561;28;20524;-83
2023/08/02 07:41:43;;;;;;;1.40;0.80;;;21.20;99.90;;;;;;5085393;28;21133;-80
2023/08/02 07:44:10;;;;;;;0.93;0.70;;;21.10;99.90;;;;;;5085381;28;20443;-80
2023/08/02 07:46:37;;;;;;;0.90;0.50;;;21.40;99.90;;;;;;5100009;28;20460;-80
2023/08/02 07:49:04;;;;;;;1.00;0.77;;;21.60;99.90;;;;;;5096269;28;20447;-79
2023/08/02 07:51:31;;;;;;;0.60;0.50;;;22.00;99.90;;;;;;5085351;28;20452;-83
2023/08/02 07:53:58;;;;;;;4.10;0.70;;;21.70;99.90;;;;;;5084519;28;20486;-80
2023/08/02 07:56:26;;;;;;;0.90;0.57;;;21.10;99.90;;;;;;5086969;28;20490;-83
2023/08/02 07:58:53;;;;;;;0.80;0.60;;;21.20;99.90;;;;;;5087103;28;20500;-80
2023/08/02 08:01:20;;;;;;;0.57;0.50;;;21.40;99.90;;;;;;5083871;28;20504;-80
2023/08/02 08:03:47;;;;;;;1.60;0.50;;;21.60;99.90;;;;;;5083488;28;20496;-81
2023/08/02 08:06:15;;;;;;;1.57;0.70;;;22.00;99.90;;;;;;5085856;28;20508;-80
2023/08/02 08:08:43;;;;;;;1.00;0.60;;;22.50;99.90;;;;;;5083602;28;20460;-81
2023/08/02 08:11:10;;;;;;;1.83;0.70;;;22.40;99.90;;;;;;5084509;28;20447;-81
2023/08/02 08:13:39;;;;;;;3.27;0.60;;;22.50;99.90;;;;;;5081683;28;20495;-82
2023/08/02 08:16:06;;;;;;;3.03;0.70;;;22.40;99.90;;;;;;5081992;28;20553;-82
2023/08/02 08:18:33;;;;;;;1.60;0.50;;;22.30;99.40;;;;;;5085790;28;20451;-80
2023/08/02 08:21:02;;;;;;;0.80;0.63;;;22.40;99.90;;;;;;5081982;28;20470;-80
2023/08/02 08:23:30;;;;;;;1.00;0.90;;;22.40;99.90;;;;;;5085970;28;20451;-79
2023/08/02 08:25:57;;;;;;;1.43;0.67;;;22.30;99.90;;;;;;5085341;28;20460;-80
2023/08/02 08:28:24;;;;;;;1.47;0.60;;;22.30;98.80;;;;;;5084928;28;20532;-80
2023/08/02 08:30:59;;;;;;;1.83;0.70;;;22.30;99.90;;;;;;5082274;28;20468;-80
2023/08/02 08:33:25;;;;;;;0.90;0.70;;;22.40;99.90;;;;;;5081509;28;20522;-80
2023/08/02 08:35:52;;;;;;;8.10;1.13;;;22.50;99.90;;;;;;5087548;28;20487;-80
2023/08/02 08:38:19;;;;;;;0.93;0.60;;;22.50;99.90;;;;;;5083207;28;20494;-80
2023/08/02 08:40:50;;;;;;;1.00;0.50;;;22.10;99.90;;;;;;5083687;28;20464;-80
2023/08/02 08:43:17;;;;;;;1.17;0.60;;;22.10;99.90;;;;;;5087573;28;21143;-80
2023/08/02 08:45:45;;;;;;;0.80;0.60;;;22.10;99.90;;;;;;5084173;28;20604;-84
2023/08/02 08:48:14;;;;;;;1.43;0.60;;;21.80;99.90;;;;;;5082575;28;21130;-80
2023/08/02 08:50:43;;;;;;;0.73;0.67;;;22.30;99.90;;;;;;5088897;28;20435;-81
2023/08/02 08:53:17;;;;;;;0.80;0.70;;;22.50;99.90;;;;;;5084323;28;20465;-80
2023/08/02 08:55:49;;;;;;;1.70;0.73;;;22.20;99.90;;;;;;5084577;28;20486;-80
2023/08/02 08:58:17;;;;;;;0.90;0.60;;;22.20;99.90;;;;;;5088783;28;20448;-80
2023/08/02 09:00:44;;;;;;;0.70;0.60;;;22.00;99.90;;;;;;5086743;28;20824;-79
2023/08/02 09:03:13;;;;;;;0.80;0.60;;;21.80;99.90;;;;;;5089637;28;20571;-81
2023/08/02 09:05:41;;;;;;;1.10;0.90;;;21.90;99.90;;;;;;5091557;28;21217;-82
2023/08/02 09:08:09;;;;;;;0.97;0.70;;;21.70;99.90;;;;;;5105165;28;20504;-82
2023/08/02 09:10:36;;;;;;;0.70;0.60;;;21.50;99.90;;;;;;5100064;28;20443;-80
2023/08/02 09:13:03;;;;;;;1.43;0.67;;;21.70;99.90;;;;;;5095151;28;20463;-79
2023/08/02 09:15:30;;;;;;;2.07;1.20;;;22.00;99.90;;;;;;5087456;28;20525;-80
2023/08/02 09:17:58;;;;;;;0.80;0.80;;;21.90;99.90;;;;;;5087718;28;20540;-80
2023/08/02 09:20:27;;;;;;;1.33;0.63;;;22.00;99.90;;;;;;5086942;28;21123;-81
2023/08/02 09:22:55;;;;;;;2.77;0.97;;;21.80;99.90;;;;;;5086641;28;20986;-80
2023/08/02 09:25:24;;;;;;;1.00;0.80;;;21.70;99.90;;;;;;5080335;28;20459;-81
2023/08/02 09:27:52;;;;;;;2.33;1.13;;;21.70;99.90;;;;;;5085506;28;20472;-79
2023/08/02 09:30:24;;;;;;;1.00;0.90;;;21.70;99.90;;;;;;5087034;28;20489;-79
2023/08/02 09:33:00;;;;;;;0.83;0.60;;;21.80;99.90;;;;;;5085569;28;20504;-79
2023/08/02 09:35:27;;;;;;;1.23;0.60;;;21.80;99.90;;;;;;5085401;28;20519;-79
2023/08/02 09:37:56;;;;;;;2.20;0.80;;;22.00;99.90;;;;;;5083192;28;20555;-80
2023/08/02 09:40:35;;;;;;;1.10;0.70;;;21.70;99.90;;;;;;5084819;28;20854;-80
2023/08/02 09:43:03;;;;;;;1.00;0.80;;;21.80;99.90;;;;;;5084371;28;20459;-79
2023/08/02 09:45:34;;;;;;;1.10;0.60;;;22.20;99.90;;;;;;5085331;28;20526;-79
2023/08/02 09:48:01;;;;;;;6.43;0.93;;;22.00;99.90;;;;;;5082282;28;20878;-79
2023/08/02 09:50:29;;;;;;;0.80;0.80;;;22.30;99.90;;;;;;5087450;28;20844;-79
2023/08/02 09:52:57;;;;;;;1.00;0.70;;;22.20;99.90;;;;;;5084411;28;20508;-79
2023/08/02 09:55:24;;;;;;;2.50;0.50;;;22.30;99.90;;;;;;5085588;28;20591;-83
2023/08/02 09:57:52;;;;;;;2.00;0.67;;;22.60;99.90;;;;;;5079904;28;21021;-79
2023/08/02 10:00:19;;;;;;;1.63;0.80;;;22.30;99.90;;;;;;5082768;28;20836;-79
2023/08/02 10:02:48;;;;;;;1.23;0.50;;;22.60;99.90;;;;;;5078286;28;20494;-79
2023/08/02 10:05:18;;;;;;;0.70;0.60;;;22.90;99.90;;;;;;5077966;28;20485;-80
2023/08/02 10:07:47;;;;;;;1.53;0.50;;;23.40;99.90;;;;;;5085233;28;20445;-82
2023/08/02 10:10:21;;;;;;;3.30;0.70;;;23.20;99.90;;;;;;5082692;28;20460;-79
2023/08/02 10:12:53;;;;;;;1.00;0.80;;;22.80;99.90;;;;;;5083829;28;21029;-80
2023/08/02 10:15:20;;;;;;;5.63;0.80;;;22.90;99.90;;;;;;5080999;28;20567;-79
2023/08/02 10:17:48;;;;;;;1.00;0.87;;;22.60;99.90;;;;;;5072941;28;20487;-79
2023/08/02 10:20:15;;;;;;;0.93;0.70;;;22.60;99.90;;;;;;5079443;28;21304;-79
2023/08/02 10:22:43;;;;;;;3.83;0.70;;;23.10;99.90;;;;;;5078795;28;20531;-78
2023/08/02 10:25:13;;;;;;;1.20;1.10;;;22.90;99.90;;;;;;5083894;28;20501;-80
2023/08/02 10:27:42;;;;;;;1.43;1.10;;;23.20;99.90;;;;;;5080581;28;20444;-82
2023/08/02 10:30:10;;;;;;;0.90;0.70;;;23.10;99.90;;;;;;5092089;28;20540;-80
2023/08/02 10:32:37;;;;;;;0.70;0.60;;;23.10;99.90;;;;;;5096565;28;20469;-79
2023/08/02 10:35:05;;;;;;;2.50;1.07;;;23.30;99.90;;;;;;5090725;28;20451;-78
2023/08/02 10:37:53;;;;;;;8.37;0.70;;;23.70;99.90;;;;;;5086484;28;20463;-79
2023/08/02 10:40:25;;;;;;;2.30;0.60;;;24.00;99.90;;;;;;5083485;28;20450;-80
2023/08/02 10:43:06;;;;;;;1.20;0.90;;;24.60;99.90;;;;;;5082156;28;20552;-81
2023/08/02 10:45:34;;;;;;;6.70;2.50;;;24.30;99.90;;;;;;5085465;28;20995;-80
2023/08/02 10:48:24;;;;;;;3.20;1.33;;;24.30;99.90;;;;;;5084909;28;20477;-80
2023/08/02 10:50:51;;;;;;;1.10;0.90;;;24.20;99.90;;;;;;5080571;28;20484;-79
2023/08/02 10:53:18;;;;;;;0.60;0.50;;;24.10;99.90;;;;;;5083173;28;20473;-79
2023/08/02 10:56:04;;;;;;;0.70;0.60;;;24.40;99.90;;;;;;5083578;28;20481;-79
2023/08/02 11:01:26;;;;;;;3.13;1.10;;;24.70;99.90;;;;;;5114136;27;20531;-79
2023/08/02 11:03:54;;;;;;;1.70;1.60;;;24.70;99.90;;;;;;5112065;28;20467;-78
2023/08/02 11:06:25;;;;;;;1.73;1.27;;;24.20;99.90;;;;;;5108526;28;20501;-78
2023/08/02 11:08:52;;;;;;;1.30;0.90;;;24.30;99.90;;;;;;5100139;28;20446;-78
2023/08/02 11:11:33;;;;;;;1.17;0.70;;;23.70;99.90;;;;;;5096670;28;20810;-79
2023/08/02 11:14:00;;;;;;;1.67;0.80;;;24.10;99.90;;;;;;5095528;28;20492;-81
2023/08/02 11:16:29;;;;;;;1.70;1.57;;;24.20;99.90;;;;;;5090677;28;20466;-80
2023/08/02 11:18:56;;;;;;;0.70;0.70;;;24.10;99.90;;;;;;5100753;28;20533;-78
2023/08/02 11:21:24;;;;;;;2.27;1.20;;;23.40;99.90;;;;;;5102832;28;20576;-81
2023/08/02 11:23:50;;;;;;;4.60;0.70;;;23.60;99.90;;;;;;5097894;28;20519;-82
2023/08/02 11:26:19;;;;;;;0.97;0.73;;;23.80;99.90;;;;;;5097154;28;20518;-79
2023/08/02 11:28:49;;;;;;;1.33;1.17;;;23.70;99.90;;;;;;5099752;28;20446;-80
2023/08/02 11:31:17;;;;;;;2.70;1.00;;;24.20;99.90;;;;;;5095901;28;20466;-79
2023/08/02 11:33:45;;;;;;;1.63;0.80;;;24.30;99.90;;;;;;5100908;28;20852;-79
2023/08/02 11:36:12;;;;;;;1.47;0.80;;;24.20;99.90;;;;;;5097701;28;20451;-80
2023/08/02 11:38:40;;;;;;;1.27;0.90;;;24.20;99.90;;;;;;5100176;28;20443;-80
2023/08/02 11:41:17;;;;;;;1.10;0.97;;;23.80;99.90;;;;;;5096331;28;20922;-82
2023/08/02 11:43:45;;;;;;;1.20;0.97;;;23.30;99.90;;;;;;5100838;28;20514;-79
2023/08/02 11:46:17;;;;;;;1.10;0.90;;;23.20;99.90;;;;;;5097758;28;20437;-80
2023/08/02 11:48:46;;;;;;;1.67;0.80;;;23.20;99.90;;;;;;5092579;28;20472;-79
2023/08/02 11:51:15;;;;;;;1.30;0.80;;;23.10;99.90;;;;;;5096627;28;20893;-78
2023/08/02 11:53:55;;;;;;;1.77;0.90;;;23.10;99.90;;;;;;5097560;28;20991;-80
2023/08/02 11:56:24;;;;;;;1.20;0.90;;;23.50;99.90;;;;;;5097952;28;20519;-79
2023/08/02 11:58:53;;;;;;;1.77;0.70;;;23.60;99.90;;;;;;5095829;28;20477;-80
2023/08/02 12:01:20;;;;;;;0.80;0.80;;;23.90;99.90;;;;;;5097889;28;20517;-79
2023/08/02 12:03:56;;;;;;;1.13;0.80;;;23.90;99.90;;;;;;5099174;28;20443;-79
2023/08/02 12:06:24;;;;;;;0.83;0.70;;;23.70;99.90;;;;;;5093038;28;20463;-79
2023/08/02 12:08:52;;;;;;;1.83;0.87;;;23.60;99.90;;;;;;5091380;28;20453;-79
2023/08/02 12:11:20;;;;;;;1.07;0.70;;;23.40;99.90;;;;;;5090241;28;21063;-79
2023/08/02 12:13:47;;;;;;;1.43;0.70;;;23.50;99.90;;;;;;5081661;28;20443;-80
2023/08/02 12:16:15;;;;;;;0.90;0.70;;;23.30;99.90;;;;;;5077261;28;20570;-80
2023/08/02 12:18:56;;;;;;;1.00;0.80;;;23.60;99.90;;;;;;5084576;28;21022;-79
2023/08/02 12:21:23;;;;;;;1.27;0.87;;;24.10;99.90;;;;;;5084623;28;20518;-79
2023/08/02 12:23:50;;;;;;;1.83;0.60;;;24.00;99.90;;;;;;5083805;28;20452;-79
2023/08/02 12:26:31;;;;;;;0.77;0.60;;;24.00;99.90;;;;;;5086027;28;20458;-79
2023/08/02 12:28:59;;;;;;;1.53;1.00;;;24.00;99.40;;;;;;5091588;28;20464;-80
2023/08/02 12:31:26;;;;;;;0.80;0.70;;;24.10;99.90;;;;;;5084315;28;20460;-80
2023/08/02 12:33:53;;;;;;;0.77;0.70;;;23.90;99.90;;;;;;5077099;28;20464;-79
2023/08/02 12:36:31;;;;;;;4.30;0.60;;;24.20;99.90;;;;;;5079881;28;20557;-79
2023/08/02 12:38:58;;;;;;;0.63;0.53;;;24.20;95.90;;;;;;5082706;28;21062;-80
2023/08/02 12:41:27;;;;;;;2.60;0.70;;;24.10;93.60;;;;;;5082723;28;20555;-80
2023/08/02 12:43:55;;;;;;;1.80;0.53;;;23.90;94.20;;;;;;5085602;28;20489;-80
2023/08/02 12:46:22;;;;;;;1.57;0.97;;;23.70;94.20;;;;;;5076388;28;20463;-79
2023/08/02 12:48:50;;;;;;;0.70;0.67;;;23.60;93.50;;;;;;5079860;28;21183;-79
2023/08/02 12:51:17;;;;;;;2.80;0.70;;;23.40;93.20;;;;;;5084101;28;20476;-79
2023/08/02 12:53:46;;;;;;;1.20;0.70;;;23.40;92.60;;;;;;5083995;28;20463;-79
2023/08/02 12:56:14;;;;;;;0.70;0.60;;;23.10;96.10;;;;;;5081695;28;20512;-79